Time;durP1;ratioP1;P1;durP2;ratioP2;P2;SDS_P1;SDS_P2;PMS_P1;PMS_P2;Temp;Humidity;BMP_temperature;BMP_pressure;BME280_temperature;BME280_humidity;BME280_pressure;Samples;Min_cycle;Max_cycle;Signal;HPM_P1;HPM_P2
2023/06/14 00:00:59;;;;;;;4.88;1.60;;;;;;;;;;5101619;27;20058;-71
2023/06/14 00:03:25;;;;;;;4.18;1.30;;;;;;;;;;5127197;27;20100;-71
2023/06/14 00:05:52;;;;;;;7.38;1.77;;;;;;;;;;5120218;27;20046;-71
2023/06/14 00:08:18;;;;;;;7.22;1.90;;;;;;;;;;5103394;28;20405;-71
2023/06/14 00:10:45;;;;;;;6.75;1.52;;;;;;;;;;5119285;27;20043;-71
2023/06/14 00:13:11;;;;;;;4.38;1.90;;;;;;;;;;5100068;27;20406;-71
2023/06/14 00:15:38;;;;;;;3.13;1.40;;;;;;;;;;5102495;27;20031;-71
2023/06/14 00:18:04;;;;;;;8.13;1.38;;;;;;;;;;5119589;27;20035;-71
2023/06/14 00:20:32;;;;;;;7.50;1.73;;;;;;;;;;5099881;27;20076;-71
2023/06/14 00:22:59;;;;;;;6.72;2.00;;;;;;;;;;5101420;27;20039;-71
2023/06/14 00:25:25;;;;;;;10.15;1.52;;;;;;;;;;5119912;27;20838;-71
2023/06/14 00:27:52;;;;;;;3.58;1.20;;;;;;;;;;5120305;27;20043;-71
2023/06/14 00:30:18;;;;;;;4.40;1.92;;;;;;;;;;5116572;27;20048;-71
2023/06/14 00:32:45;;;;;;;7.40;1.70;;;;;;;;;;5105146;28;20109;-71
2023/06/14 00:35:11;;;;;;;4.03;1.45;;;;;;;;;;5106791;27;20083;-71
2023/06/14 00:37:38;;;;;;;6.32;1.80;;;;;;;;;;5131373;27;20133;-71
2023/06/14 00:40:05;;;;;;;6.78;1.50;;;;;;;;;;5125554;27;20035;-71
2023/06/14 00:42:31;;;;;;;4.75;1.35;;;;;;;;;;5130257;28;20580;-71
2023/06/14 00:44:57;;;;;;;3.13;1.42;;;;;;;;;;5125299;27;20039;-71
2023/06/14 00:47:24;;;;;;;3.75;1.27;;;;;;;;;;5128954;28;20171;-71
2023/06/14 00:49:51;;;;;;;6.35;1.63;;;;;;;;;;5129071;27;20043;-71
2023/06/14 00:52:17;;;;;;;4.53;1.58;;;;;;;;;;5121564;28;20394;-71
2023/06/14 00:54:44;;;;;;;3.65;1.35;;;;;;;;;;5111569;28;20066;-71
2023/06/14 00:57:10;;;;;;;4.38;1.45;;;;;;;;;;5107017;28;20539;-71
2023/06/14 00:59:39;;;;;;;5.07;1.77;;;;;;;;;;5110689;28;20047;-71
2023/06/14 01:02:05;;;;;;;6.60;1.73;;;;;;;;;;5103256;27;20126;-71
2023/06/14 01:04:31;;;;;;;7.28;1.73;;;;;;;;;;5107862;28;20043;-71
2023/06/14 01:07:12;;;;;;;6.45;1.60;;;;;;;;;;5147649;27;20072;-71
2023/06/14 01:09:44;;;;;;;5.00;1.40;;;;;;;;;;5122428;28;20051;-71
2023/06/14 01:12:30;;;;;;;5.47;1.38;;;;;;;;;;5127257;27;20122;-71
2023/06/14 01:14:57;;;;;;;5.95;1.20;;;;;;;;;;5106561;28;20078;-71
2023/06/14 01:17:26;;;;;;;4.35;1.20;;;;;;;;;;5125315;28;20045;-71
2023/06/14 01:19:57;;;;;;;3.75;1.10;;;;;;;;;;5120947;27;20040;-71
2023/06/14 01:22:26;;;;;;;4.68;1.48;;;;;;;;;;5130155;27;20051;-71
2023/06/14 01:24:55;;;;;;;7.72;1.63;;;;;;;;;;5106623;28;20050;-71
2023/06/14 01:27:28;;;;;;;4.00;1.38;;;;;;;;;;5125173;28;20226;-71
2023/06/14 01:29:56;;;;;;;;;;;;;;;;;;5100826;28;20051;-71
2023/06/14 01:32:27;;;;;;;5.25;1.58;;;;;;;;;;5104291;27;20315;-71
2023/06/14 01:34:53;;;;;;;3.10;1.10;;;;;;;;;;5107828;28;20426;-71
2023/06/14 01:37:20;;;;;;;5.18;1.98;;;;;;;;;;5072362;28;20480;-71
2023/06/14 01:39:46;;;;;;;2.88;1.20;;;;;;;;;;5085343;28;20036;-71
2023/06/14 01:42:13;;;;;;;3.83;1.23;;;;;;;;;;5104556;28;20043;-71
2023/06/14 01:44:41;;;;;;;4.90;1.73;;;;;;;;;;5083485;28;20474;-71
2023/06/14 01:47:07;;;;;;;8.50;1.85;;;;;;;;;;5086824;28;20134;-71
2023/06/14 01:49:40;;;;;;;7.03;1.10;;;;;;;;;;5083837;28;20375;-71
2023/06/14 01:52:09;;;;;;;4.93;1.43;;;;;;;;;;5098175;28;20427;-71
2023/06/14 01:54:37;;;;;;;6.85;1.48;;;;;;;;;;5071922;28;20325;-71
2023/06/14 01:57:04;;;;;;;3.13;1.30;;;;;;;;;;5107993;28;20044;-71
2023/06/14 01:59:31;;;;;;;3.85;1.27;;;;;;;;;;5102594;28;20051;-71
2023/06/14 02:01:57;;;;;;;5.85;1.40;;;;;;;;;;5082720;28;20097;-71
2023/06/14 02:04:23;;;;;;;7.80;1.73;;;;;;;;;;5104640;28;20040;-71
2023/06/14 02:06:49;;;;;;;6.35;1.60;;;;;;;;;;5081693;28;20339;-71
2023/06/14 02:09:15;;;;;;;5.50;2.17;;;;;;;;;;5101814;28;20054;-71
2023/06/14 02:11:41;;;;;;;5.63;1.98;;;;;;;;;;5082820;28;20506;-71
2023/06/14 02:14:10;;;;;;;3.90;1.60;;;;;;;;;;5082243;28;20058;-71
2023/06/14 02:16:37;;;;;;;4.22;1.80;;;;;;;;;;5102196;28;20039;-71
2023/06/14 02:19:03;;;;;;;7.28;1.85;;;;;;;;;;5084777;28;20036;-71
2023/06/14 02:21:30;;;;;;;3.28;1.00;;;;;;;;;;5102038;28;20047;-71
2023/06/14 02:23:56;;;;;;;5.43;1.48;;;;;;;;;;5100689;28;20044;-71
2023/06/14 02:26:22;;;;;;;2.75;1.20;;;;;;;;;;5101957;28;20159;-71
2023/06/14 02:28:49;;;;;;;4.40;1.45;;;;;;;;;;5101127;27;20047;-71
2023/06/14 02:31:16;;;;;;;5.35;1.58;;;;;;;;;;5122803;27;20043;-71
2023/06/14 02:33:42;;;;;;;4.00;1.65;;;;;;;;;;5123589;27;20353;-71
2023/06/14 02:36:08;;;;;;;3.78;1.70;;;;;;;;;;5107638;27;20117;-71
2023/06/14 02:38:34;;;;;;;4.03;1.25;;;;;;;;;;5104498;27;20409;-71
2023/06/14 02:41:01;;;;;;;4.50;1.30;;;;;;;;;;5107040;27;20142;-71
2023/06/14 02:43:29;;;;;;;5.47;1.40;;;;;;;;;;5128880;27;20107;-72
2023/06/14 02:45:56;;;;;;;5.03;1.70;;;;;;;;;;5121419;27;20107;-71
2023/06/14 02:48:22;;;;;;;4.28;1.60;;;;;;;;;;5120313;27;20325;-71
2023/06/14 02:50:48;;;;;;;4.03;1.50;;;;;;;;;;5108134;27;20087;-71
2023/06/14 02:53:14;;;;;;;2.90;1.30;;;;;;;;;;5126562;27;20043;-71
2023/06/14 02:55:40;;;;;;;5.30;1.80;;;;;;;;;;5142097;27;20047;-71
2023/06/14 02:58:06;;;;;;;5.47;1.80;;;;;;;;;;5107078;27;20059;-71
2023/06/14 03:00:35;;;;;;;3.47;1.77;;;;;;;;;;5119925;27;20035;-71
2023/06/14 03:03:01;;;;;;;3.38;1.38;;;;;;;;;;5102834;27;20043;-71
2023/06/14 03:05:28;;;;;;;7.68;1.80;;;;;;;;;;5123400;27;20049;-71
2023/06/14 03:07:54;;;;;;;8.23;2.22;;;;;;;;;;5118477;27;20126;-71
2023/06/14 03:10:22;;;;;;;7.95;2.40;;;;;;;;;;5100682;27;20051;-71
2023/06/14 03:12:48;;;;;;;5.47;2.05;;;;;;;;;;5120388;27;20038;-71
2023/06/14 03:15:14;;;;;;;3.53;1.63;;;;;;;;;;5102153;27;20056;-71
2023/06/14 03:17:45;;;;;;;3.67;1.67;;;;;;;;;;5136946;27;20035;-71
2023/06/14 03:20:11;;;;;;;5.57;1.98;;;;;;;;;;5118111;27;20131;-71
2023/06/14 03:22:39;;;;;;;6.82;2.00;;;;;;;;;;5119728;27;20096;-71
2023/06/14 03:25:05;;;;;;;6.18;1.85;;;;;;;;;;5120365;27;20165;-71
2023/06/14 03:27:31;;;;;;;5.88;2.30;;;;;;;;;;5119647;27;20039;-71
2023/06/14 03:29:57;;;;;;;4.53;1.90;;;;;;;;;;5119597;27;20754;-71
2023/06/14 03:32:24;;;;;;;7.53;2.03;;;;;;;;;;5102240;27;20054;-71
2023/06/14 03:34:50;;;;;;;6.15;2.15;;;;;;;;;;5105369;27;20380;-71
2023/06/14 03:37:17;;;;;;;7.85;2.05;;;;;;;;;;5118501;27;20047;-71
2023/06/14 03:39:46;;;;;;;5.32;1.88;;;;;;;;;;5118008;27;20032;-71
2023/06/14 03:42:13;;;;;;;5.30;2.15;;;;;;;;;;5102222;27;21210;-71
2023/06/14 03:44:39;;;;;;;4.78;1.85;;;;;;;;;;5088077;27;20039;-71
2023/06/14 03:47:06;;;;;;;8.95;1.90;;;;;;;;;;5122961;27;20047;-71
2023/06/14 03:49:32;;;;;;;6.13;1.95;;;;;;;;;;5134231;27;20055;-71
2023/06/14 03:51:59;;;;;;;6.88;2.20;;;;;;;;;;5138714;27;20046;-71
2023/06/14 03:54:26;;;;;;;7.75;2.38;;;;;;;;;;5099892;27;20166;-71
2023/06/14 03:56:52;;;;;;;4.55;2.10;;;;;;;;;;5121798;27;20474;-71
2023/06/14 03:59:18;;;;;;;9.52;2.25;;;;;;;;;;5120023;27;20374;-71
2023/06/14 04:01:46;;;;;;;8.63;2.15;;;;;;;;;;5139004;27;20031;-71
2023/06/14 04:04:12;;;;;;;9.63;2.53;;;;;;;;;;5123234;27;20052;-71
2023/06/14 04:06:41;;;;;;;7.38;2.08;;;;;;;;;;5120798;27;20039;-71
2023/06/14 04:09:07;;;;;;;7.20;2.10;;;;;;;;;;5117749;27;20387;-71
2023/06/14 04:11:33;;;;;;;7.43;1.67;;;;;;;;;;5121677;27;20039;-71
2023/06/14 04:13:59;;;;;;;5.35;1.98;;;;;;;;;;5131079;27;20035;-71
2023/06/14 04:16:26;;;;;;;6.85;2.38;;;;;;;;;;5126554;27;20112;-66
2023/06/14 04:18:53;;;;;;;5.88;2.10;;;;;;;;;;5119932;27;20039;-71
2023/06/14 04:21:20;;;;;;;5.43;2.13;;;;;;;;;;5121108;27;20499;-70
2023/06/14 04:23:46;;;;;;;7.35;2.40;;;;;;;;;;5119655;27;20486;-71
2023/06/14 04:26:12;;;;;;;5.60;2.20;;;;;;;;;;5117428;27;20050;-71
2023/06/14 04:28:40;;;;;;;4.22;2.35;;;;;;;;;;5131367;27;20047;-71
2023/06/14 04:31:11;;;;;;;6.68;2.05;;;;;;;;;;5103082;27;20134;-71
2023/06/14 04:33:46;;;;;;;7.20;2.22;;;;;;;;;;5103369;27;20085;-71
2023/06/14 04:36:12;;;;;;;9.57;2.83;;;;;;;;;;5122496;27;20526;-71
2023/06/14 04:38:39;;;;;;;5.18;2.10;;;;;;;;;;5103708;28;20051;-71
2023/06/14 04:41:06;;;;;;;5.60;2.17;;;;;;;;;;5109296;28;20570;-71
2023/06/14 04:43:37;;;;;;;6.60;2.50;;;;;;;;;;5107003;28;20091;-71
2023/06/14 04:46:10;;;;;;;5.90;2.00;;;;;;;;;;5124803;27;20050;-70
2023/06/14 04:48:37;;;;;;;7.93;2.67;;;;;;;;;;5114346;28;20059;-70
2023/06/14 04:51:03;;;;;;;7.40;2.25;;;;;;;;;;5127435;27;20360;-71
2023/06/14 04:53:31;;;;;;;4.93;2.40;;;;;;;;;;5113265;28;20046;-70
2023/06/14 04:55:57;;;;;;;6.20;2.47;;;;;;;;;;5108824;27;20525;-70
2023/06/14 04:58:23;;;;;;;7.28;2.63;;;;;;;;;;5104679;27;20071;-71
2023/06/14 05:00:49;;;;;;;7.03;2.83;;;;;;;;;;5130501;27;20076;-70
2023/06/14 05:03:18;;;;;;;10.73;2.40;;;;;;;;;;5131925;28;20059;-70
2023/06/14 05:05:44;;;;;;;6.38;2.40;;;;;;;;;;5134689;27;20084;-70
2023/06/14 05:08:10;;;;;;;4.25;2.38;;;;;;;;;;5118037;27;20126;-70
2023/06/14 05:10:37;;;;;;;6.90;2.60;;;;;;;;;;5135365;27;20043;-70
2023/06/14 05:13:03;;;;;;;5.60;2.58;;;;;;;;;;5117986;27;20595;-70
2023/06/14 05:15:29;;;;;;;8.07;2.67;;;;;;;;;;5117779;27;20168;-70
2023/06/14 05:17:56;;;;;;;5.85;2.90;;;;;;;;;;5135707;27;20399;-68
2023/06/14 05:20:24;;;;;;;6.72;3.05;;;;;;;;;;5133454;27;20110;-70
2023/06/14 05:22:53;;;;;;;9.90;2.63;;;;;;;;;;5133599;27;20355;-67
2023/06/14 05:25:20;;;;;;;7.70;2.78;;;;;;;;;;5131994;27;20497;-68
2023/06/14 05:27:47;;;;;;;5.40;2.47;;;;;;;;;;5136935;27;20043;-71
2023/06/14 05:30:14;;;;;;;6.30;2.80;;;;;;;;;;5100476;27;20505;-70
2023/06/14 05:32:40;;;;;;;6.20;3.08;;;;;;;;;;5116591;27;20058;-71
2023/06/14 05:35:07;;;;;;;7.82;2.90;;;;;;;;;;5115505;27;20452;-71
2023/06/14 05:37:33;;;;;;;4.90;2.70;;;;;;;;;;5100674;27;20417;-71
2023/06/14 05:39:59;;;;;;;6.10;2.28;;;;;;;;;;5134835;27;20047;-71
2023/06/14 05:42:25;;;;;;;7.70;3.35;;;;;;;;;;5131459;27;20050;-70
2023/06/14 05:44:51;;;;;;;8.07;3.13;;;;;;;;;;5132895;27;20115;-71
2023/06/14 05:47:17;;;;;;;7.38;2.58;;;;;;;;;;5117743;27;20043;-70
2023/06/14 05:49:44;;;;;;;6.43;3.00;;;;;;;;;;5116827;27;20448;-71
2023/06/14 05:52:11;;;;;;;9.88;2.75;;;;;;;;;;5134153;27;20487;-70
2023/06/14 05:54:37;;;;;;;7.38;2.78;;;;;;;;;;5133200;27;20055;-71
2023/06/14 05:57:06;;;;;;;9.40;2.83;;;;;;;;;;5132163;27;20092;-71
2023/06/14 05:59:32;;;;;;;6.60;2.72;;;;;;;;;;5133585;27;20081;-71
2023/06/14 06:01:58;;;;;;;6.82;3.08;;;;;;;;;;5116897;27;20038;-71
2023/06/14 06:04:25;;;;;;;4.20;2.53;;;;;;;;;;5133697;27;20062;-69
2023/06/14 06:06:51;;;;;;;6.60;2.80;;;;;;;;;;5109189;27;20439;-71
2023/06/14 06:09:18;;;;;;;5.97;2.53;;;;;;;;;;5115260;27;20065;-71
2023/06/14 06:11:45;;;;;;;6.47;2.95;;;;;;;;;;5135133;27;20143;-71
2023/06/14 06:14:11;;;;;;;7.07;3.20;;;;;;;;;;5115707;27;20047;-71
2023/06/14 06:16:37;;;;;;;8.18;2.88;;;;;;;;;;5114323;27;20116;-71
2023/06/14 06:19:03;;;;;;;7.68;2.90;;;;;;;;;;5134700;27;20058;-71
2023/06/14 06:21:29;;;;;;;6.20;2.53;;;;;;;;;;5134382;27;20122;-71
2023/06/14 06:23:55;;;;;;;6.50;2.72;;;;;;;;;;5134216;27;20058;-71
2023/06/14 06:26:22;;;;;;;10.20;2.53;;;;;;;;;;5111068;27;20059;-71
2023/06/14 06:28:49;;;;;;;10.15;3.65;;;;;;;;;;5133663;27;20075;-71
2023/06/14 06:31:15;;;;;;;6.82;2.63;;;;;;;;;;5121048;27;20089;-71
2023/06/14 06:33:42;;;;;;;6.22;2.90;;;;;;;;;;5113321;28;20043;-71
2023/06/14 06:36:08;;;;;;;6.63;2.50;;;;;;;;;;5108920;27;20047;-71
2023/06/14 06:38:34;;;;;;;7.32;3.03;;;;;;;;;;5114087;28;20048;-71
2023/06/14 06:41:01;;;;;;;9.35;2.70;;;;;;;;;;5113507;28;20137;-71
2023/06/14 06:43:27;;;;;;;5.63;2.55;;;;;;;;;;5112818;27;20073;-71
2023/06/14 06:45:53;;;;;;;4.65;2.10;;;;;;;;;;5096796;28;20533;-71
2023/06/14 06:48:19;;;;;;;7.40;2.40;;;;;;;;;;5112264;28;20344;-71
2023/06/14 06:50:46;;;;;;;20.50;3.00;;;;;;;;;;5113509;27;20047;-71
2023/06/14 06:53:12;;;;;;;6.65;2.25;;;;;;;;;;5113605;28;20128;-71
2023/06/14 06:55:38;;;;;;;8.32;2.42;;;;;;;;;;5123546;27;20047;-71
2023/06/14 06:58:05;;;;;;;10.30;2.72;;;;;;;;;;5100344;27;20077;-71
2023/06/14 07:00:31;;;;;;;5.18;2.65;;;;;;;;;;5108174;27;20062;-71
2023/06/14 07:02:57;;;;;;;9.20;2.67;;;;;;;;;;5100159;27;20499;-71
2023/06/14 07:05:24;;;;;;;6.25;2.45;;;;;;;;;;5112800;28;20044;-69
2023/06/14 07:07:50;;;;;;;5.65;2.40;;;;;;;;;;5113446;28;20335;-80
2023/06/14 07:10:16;;;;;;;6.10;2.03;;;;;;;;;;5113264;28;20047;-70
2023/06/14 07:12:42;;;;;;;5.35;2.65;;;;;;;;;;5113588;27;20386;-70
2023/06/14 07:15:09;;;;;;;7.22;2.53;;;;;;;;;;5119414;27;20066;-70
2023/06/14 07:17:35;;;;;;;4.93;2.15;;;;;;;;;;5112932;28;20044;-69
2023/06/14 07:20:07;;;;;;;5.18;2.22;;;;;;;;;;5113399;28;20043;-70
2023/06/14 07:22:33;;;;;;;5.25;2.28;;;;;;;;;;5098561;27;20344;-70
2023/06/14 07:24:59;;;;;;;4.85;2.28;;;;;;;;;;5109349;28;20051;-70
2023/06/14 07:27:26;;;;;;;5.13;2.10;;;;;;;;;;5110390;27;20039;-70
2023/06/14 07:29:52;;;;;;;4.65;2.08;;;;;;;;;;5123344;27;20107;-70
2023/06/14 07:32:18;;;;;;;7.15;2.08;;;;;;;;;;5131964;27;20059;-70
2023/06/14 07:34:44;;;;;;;8.52;2.38;;;;;;;;;;5114920;27;20043;-69
2023/06/14 07:37:10;;;;;;;7.05;2.70;;;;;;;;;;5133219;27;20057;-70
2023/06/14 07:39:36;;;;;;;3.97;2.20;;;;;;;;;;5115224;27;20062;-69
2023/06/14 07:42:03;;;;;;;4.03;1.92;;;;;;;;;;5132300;27;20035;-69
2023/06/14 07:44:33;;;;;;;7.13;2.10;;;;;;;;;;5132075;27;20054;-78
2023/06/14 07:46:59;;;;;;;7.53;2.13;;;;;;;;;;5133590;27;20031;-70
2023/06/14 07:49:26;;;;;;;3.45;1.90;;;;;;;;;;5133210;27;20051;-69
2023/06/14 07:51:53;;;;;;;6.50;2.13;;;;;;;;;;5133863;27;20039;-69
2023/06/14 07:54:24;;;;;;;4.10;1.80;;;;;;;;;;5133513;27;20094;-69
2023/06/14 07:56:51;;;;;;;5.55;2.50;;;;;;;;;;5132148;27;20043;-69
2023/06/14 07:59:17;;;;;;;4.15;1.67;;;;;;;;;;5128973;27;20069;-69
2023/06/14 08:01:46;;;;;;;5.20;1.60;;;;;;;;;;5134160;27;20036;-69
2023/06/14 08:04:15;;;;;;;6.78;2.05;;;;;;;;;;5132289;27;20086;-69
2023/06/14 08:06:45;;;;;;;6.70;1.77;;;;;;;;;;5132244;27;20078;-69
2023/06/14 08:09:11;;;;;;;4.07;1.92;;;;;;;;;;5132967;27;20058;-69
2023/06/14 08:11:38;;;;;;;7.63;1.90;;;;;;;;;;5132126;27;20117;-69
2023/06/14 08:14:04;;;;;;;5.20;2.00;;;;;;;;;;5132280;27;20047;-69
2023/06/14 08:16:30;;;;;;;3.30;1.40;;;;;;;;;;5132531;27;20183;-69
2023/06/14 08:18:56;;;;;;;7.78;2.08;;;;;;;;;;5132692;27;20047;-69
2023/06/14 08:21:23;;;;;;;4.93;1.67;;;;;;;;;;5114169;27;20056;-69
2023/06/14 08:23:52;;;;;;;9.60;2.45;;;;;;;;;;5114247;27;20047;-69
2023/06/14 08:26:19;;;;;;;5.40;2.08;;;;;;;;;;5132005;27;20043;-69
2023/06/14 08:28:48;;;;;;;5.07;2.13;;;;;;;;;;5112974;28;20047;-69
2023/06/14 08:31:14;;;;;;;5.18;2.30;;;;;;;;;;5114406;27;20068;-70
2023/06/14 08:33:43;;;;;;;5.10;2.03;;;;;;;;;;5111733;28;20444;-70
2023/06/14 08:36:10;;;;;;;3.58;1.95;;;;;;;;;;5112236;27;20040;-67
2023/06/14 08:38:37;;;;;;;9.73;2.33;;;;;;;;;;5104570;28;20511;-70
2023/06/14 08:41:05;;;;;;;7.43;2.28;;;;;;;;;;5113588;27;20108;-70
2023/06/14 08:43:32;;;;;;;6.47;1.90;;;;;;;;;;5119179;27;20391;-70
2023/06/14 08:46:03;;;;;;;4.80;1.70;;;;;;;;;;5110521;28;20055;-70
2023/06/14 08:48:31;;;;;;;4.35;1.95;;;;;;;;;;5116965;28;20035;-70
2023/06/14 08:51:03;;;;;;;5.82;2.35;;;;;;;;;;5120743;28;20051;-70
2023/06/14 08:53:33;;;;;;;7.68;1.70;;;;;;;;;;5115415;28;20059;-70
2023/06/14 08:56:04;;;;;;;3.38;1.60;;;;;;;;;;5115218;28;20503;-70
2023/06/14 08:58:33;;;;;;;5.78;1.73;;;;;;;;;;5118683;28;20097;-70
2023/06/14 09:01:02;;;;;;;6.05;1.60;;;;;;;;;;5109137;28;20050;-70
2023/06/14 09:03:29;;;;;;;7.28;2.03;;;;;;;;;;5112667;28;20036;-70
2023/06/14 09:05:59;;;;;;;5.95;2.03;;;;;;;;;;5107632;28;20040;-70
2023/06/14 09:08:26;;;;;;;5.05;2.20;;;;;;;;;;5110660;28;20547;-70
2023/06/14 09:10:52;;;;;;;9.55;2.70;;;;;;;;;;5111192;28;20403;-70
2023/06/14 09:13:18;;;;;;;4.57;1.58;;;;;;;;;;5110339;28;20047;-70
2023/06/14 09:15:44;;;;;;;4.70;1.63;;;;;;;;;;5112858;28;20046;-70
2023/06/14 09:18:11;;;;;;;7.03;1.98;;;;;;;;;;5113338;28;20058;-72
2023/06/14 09:20:37;;;;;;;5.65;1.50;;;;;;;;;;5108360;28;20048;-71
2023/06/14 09:23:08;;;;;;;5.43;1.85;;;;;;;;;;5110312;28;20042;-67
2023/06/14 09:25:43;;;;;;;3.10;1.45;;;;;;;;;;5111839;28;20043;-68
2023/06/14 09:28:10;;;;;;;5.18;1.48;;;;;;;;;;5104730;28;20433;-68
2023/06/14 09:30:37;;;;;;;2.85;1.48;;;;;;;;;;5099541;28;20454;-68
2023/06/14 09:33:03;;;;;;;5.72;1.88;;;;;;;;;;5108915;28;20039;-68
2023/06/14 09:35:31;;;;;;;5.35;1.52;;;;;;;;;;5110272;28;20461;-68
2023/06/14 09:37:57;;;;;;;7.53;1.98;;;;;;;;;;5109610;28;20054;-68
2023/06/14 09:40:24;;;;;;;5.18;1.83;;;;;;;;;;5108282;28;20483;-68
2023/06/14 09:42:50;;;;;;;4.30;1.63;;;;;;;;;;5108645;28;20088;-68
2023/06/14 09:45:21;;;;;;;5.88;2.25;;;;;;;;;;5095394;28;20083;-68
2023/06/14 09:47:49;;;;;;;4.15;1.70;;;;;;;;;;5105275;28;20047;-68
2023/06/14 09:50:15;;;;;;;7.40;1.83;;;;;;;;;;5111542;28;20162;-68
2023/06/14 09:52:44;;;;;;;4.07;1.70;;;;;;;;;;5111589;28;20055;-68
2023/06/14 09:55:13;;;;;;;3.90;1.55;;;;;;;;;;5109264;27;20455;-68
2023/06/14 09:57:42;;;;;;;4.03;1.52;;;;;;;;;;5110385;27;20067;-68
2023/06/14 10:00:12;;;;;;;5.57;1.63;;;;;;;;;;5100919;28;20044;-68
2023/06/14 10:02:39;;;;;;;6.68;1.50;;;;;;;;;;5110581;27;20487;-68
2023/06/14 10:05:09;;;;;;;4.15;1.50;;;;;;;;;;5102837;27;20040;-68
2023/06/14 10:07:50;;;;;;;2.72;1.67;;;;;;;;;;5102196;27;20036;-67
2023/06/14 10:10:17;;;;;;;4.75;1.30;;;;;;;;;;5100204;27;20061;-67
2023/06/14 10:12:43;;;;;;;4.22;1.63;;;;;;;;;;5111559;27;20044;-68
2023/06/14 10:15:20;;;;;;;4.90;1.80;;;;;;;;;;5104961;27;20035;-69
2023/06/14 10:18:20;;;;;;;3.60;1.58;;;;;;;;;;5105288;27;20027;-68
2023/06/14 10:21:08;;;;;;;3.53;1.35;;;;;;;;;;5059691;28;20135;-69
2023/06/14 10:23:38;;;;;;;5.45;1.50;;;;;;;;;;5131357;27;20051;-67
2023/06/14 10:26:04;;;;;;;6.25;1.90;;;;;;;;;;5114308;27;20046;-68
2023/06/14 10:28:32;;;;;;;5.10;1.48;;;;;;;;;;5114559;28;20035;-68
2023/06/14 10:31:04;;;;;;;5.45;1.73;;;;;;;;;;5116388;27;20476;-69
2023/06/14 10:33:30;;;;;;;2.65;1.50;;;;;;;;;;5117699;27;20047;-67
2023/06/14 10:36:10;;;;;;;4.43;1.73;;;;;;;;;;5115621;27;20100;-69
2023/06/14 10:38:37;;;;;;;3.53;1.48;;;;;;;;;;5134488;27;20486;-68
2023/06/14 10:41:04;;;;;;;6.63;1.60;;;;;;;;;;5115804;27;20071;-69
2023/06/14 10:43:30;;;;;;;5.85;1.70;;;;;;;;;;5115502;27;20509;-68
2023/06/14 10:46:32;;;;;;;3.35;1.40;;;;;;;;;;5094036;27;20044;-68
2023/06/14 10:48:59;;;;;;;5.28;1.80;;;;;;;;;;5063314;28;20393;-68
2023/06/14 10:51:26;;;;;;;7.28;1.63;;;;;;;;;;5102822;27;20062;-68
2023/06/14 10:53:52;;;;;;;3.28;1.85;;;;;;;;;;5134802;27;20421;-69
2023/06/14 10:56:29;;;;;;;11.10;1.67;;;;;;;;;;5132863;27;20084;-68
2023/06/14 10:58:58;;;;;;;7.00;1.38;;;;;;;;;;5125459;27;20065;-68
2023/06/14 11:01:37;;;;;;;4.00;1.52;;;;;;;;;;5130060;27;20467;-68
2023/06/14 11:04:11;;;;;;;2.80;1.40;;;;;;;;;;5114123;27;20043;-69
2023/06/14 11:06:57;;;;;;;2.95;1.25;;;;;;;;;;5115408;27;20062;-68
2023/06/14 11:09:44;;;;;;;7.47;1.65;;;;;;;;;;5114648;27;20043;-68
2023/06/14 11:12:13;;;;;;;4.15;1.70;;;;;;;;;;5133746;27;20049;-68
2023/06/14 11:14:40;;;;;;;3.25;1.85;;;;;;;;;;5133992;27;20181;-68
2023/06/14 11:17:06;;;;;;;3.97;1.40;;;;;;;;;;5134435;27;20525;-68
2023/06/14 11:19:32;;;;;;;3.25;1.40;;;;;;;;;;5133332;27;20043;-68
2023/06/14 11:21:59;;;;;;;4.28;1.23;;;;;;;;;;5115669;27;20134;-68
2023/06/14 11:24:25;;;;;;;5.13;1.48;;;;;;;;;;5114881;27;20115;-68
2023/06/14 11:26:52;;;;;;;4.78;1.80;;;;;;;;;;5115552;27;20070;-68
2023/06/14 11:29:20;;;;;;;5.15;1.52;;;;;;;;;;5108907;28;20058;-68
2023/06/14 11:31:47;;;;;;;6.50;1.80;;;;;;;;;;5112353;27;20047;-68
2023/06/14 11:34:13;;;;;;;2.35;1.17;;;;;;;;;;5112983;28;20040;-69
2023/06/14 11:36:40;;;;;;;5.35;1.80;;;;;;;;;;5112716;28;20088;-68
2023/06/14 11:39:08;;;;;;;4.32;1.50;;;;;;;;;;5094932;28;20090;-68
2023/06/14 11:41:38;;;;;;;5.28;1.60;;;;;;;;;;5112881;28;20050;-68
2023/06/14 11:44:05;;;;;;;5.00;1.55;;;;;;;;;;5094616;28;20135;-68
2023/06/14 11:46:31;;;;;;;6.40;1.50;;;;;;;;;;5112784;27;20395;-68
2023/06/14 11:48:58;;;;;;;7.40;1.60;;;;;;;;;;5077103;28;20046;-68
2023/06/14 11:51:24;;;;;;;5.40;1.38;;;;;;;;;;5094283;28;20047;-68
2023/06/14 11:53:50;;;;;;;6.38;1.85;;;;;;;;;;5094042;28;20070;-68
2023/06/14 11:56:16;;;;;;;5.18;1.73;;;;;;;;;;5106725;28;20100;-68
2023/06/14 11:58:44;;;;;;;7.45;1.80;;;;;;;;;;5079383;28;20048;-68
2023/06/14 12:01:10;;;;;;;3.63;1.60;;;;;;;;;;5078122;27;20095;-68
2023/06/14 12:03:37;;;;;;;6.32;1.58;;;;;;;;;;5112057;28;20050;-68
2023/06/14 12:06:08;;;;;;;5.53;1.40;;;;;;;;;;5094118;28;20075;-68
2023/06/14 12:08:40;;;;;;;5.00;1.65;;;;;;;;;;5094035;28;20051;-68
2023/06/14 12:11:08;;;;;;;;;;;;;;;;;;5113150;28;20093;-68
2023/06/14 12:13:35;;;;;;;2.70;1.27;;;;;;;;;;5127380;27;19998;-68
2023/06/14 12:16:02;;;;;;;6.43;1.70;;;;;;;;;;5111633;27;20039;-68
2023/06/14 12:18:34;;;;;;;4.38;1.80;;;;;;;;;;5093627;28;20050;-68
2023/06/14 12:21:04;;;;;;;3.47;1.50;;;;;;;;;;5112022;28;20031;-68
2023/06/14 12:23:44;;;;;;;10.85;1.90;;;;;;;;;;5093461;28;20478;-68
2023/06/14 12:26:13;;;;;;;3.13;1.38;;;;;;;;;;5111408;28;20148;-68
2023/06/14 12:28:41;;;;;;;5.13;1.40;;;;;;;;;;5093906;28;20418;-68
2023/06/14 12:31:08;;;;;;;3.53;1.23;;;;;;;;;;5112017;27;20047;-68
2023/06/14 12:33:35;;;;;;;5.43;1.75;;;;;;;;;;5130065;27;20100;-68
2023/06/14 12:36:03;;;;;;;4.47;1.45;;;;;;;;;;5113263;28;20058;-68
2023/06/14 12:38:30;;;;;;;5.20;1.38;;;;;;;;;;5114219;27;20082;-68
2023/06/14 12:40:57;;;;;;;5.30;1.50;;;;;;;;;;5131064;27;20047;-67
2023/06/14 12:43:23;;;;;;;4.85;1.20;;;;;;;;;;5132020;27;20075;-67
2023/06/14 12:45:50;;;;;;;5.55;1.67;;;;;;;;;;5131811;27;20040;-67
2023/06/14 12:48:16;;;;;;;6.35;1.88;;;;;;;;;;5114603;28;20039;-67
2023/06/14 12:50:42;;;;;;;5.25;1.83;;;;;;;;;;5129347;27;20122;-66
2023/06/14 12:53:08;;;;;;;6.10;1.92;;;;;;;;;;5132541;28;20551;-67
2023/06/14 12:55:35;;;;;;;5.82;2.10;;;;;;;;;;5111668;28;20072;-67
2023/06/14 12:58:01;;;;;;;5.07;1.90;;;;;;;;;;5121992;28;20344;-66
2023/06/14 13:00:27;;;;;;;7.50;2.80;;;;;;;;;;5128408;28;20039;-67
2023/06/14 13:02:54;;;;;;;8.48;2.30;;;;;;;;;;5131331;27;20027;-67
2023/06/14 13:05:20;;;;;;;11.85;2.63;;;;;;;;;;5113663;28;20043;-67
2023/06/14 13:07:46;;;;;;;6.97;2.50;;;;;;;;;;5131867;28;20043;-67
2023/06/14 13:10:12;;;;;;;6.63;2.35;;;;;;;;;;5132405;28;20134;-67
2023/06/14 13:12:38;;;;;;;5.80;2.20;;;;;;;;;;5113876;28;20126;-67
2023/06/14 13:15:05;;;;;;;6.97;1.70;;;;;;;;;;5113456;28;20461;-67
2023/06/14 13:17:33;;;;;;;8.18;2.10;;;;;;;;;;5112996;28;20043;-67
2023/06/14 13:19:59;;;;;;;7.68;1.92;;;;;;;;;;5132131;28;20061;-67
2023/06/14 13:22:26;;;;;;;5.03;1.98;;;;;;;;;;5130437;28;20039;-67
2023/06/14 13:24:52;;;;;;;9.38;2.30;;;;;;;;;;5130515;27;20046;-67
2023/06/14 13:27:18;;;;;;;5.00;2.13;;;;;;;;;;5105141;28;20474;-67
2023/06/14 13:29:44;;;;;;;9.40;2.33;;;;;;;;;;5134168;27;20130;-67
2023/06/14 13:32:10;;;;;;;5.00;2.10;;;;;;;;;;5135242;27;20099;-67
2023/06/14 13:34:37;;;;;;;7.88;2.30;;;;;;;;;;5117845;27;20406;-67
2023/06/14 13:37:03;;;;;;;8.38;2.28;;;;;;;;;;5135592;27;20039;-67
2023/06/14 13:39:29;;;;;;;5.80;2.20;;;;;;;;;;5117447;27;20043;-67
2023/06/14 13:41:55;;;;;;;5.97;2.35;;;;;;;;;;5136327;27;20031;-67
2023/06/14 13:44:21;;;;;;;7.95;2.53;;;;;;;;;;5121400;27;20478;-67
2023/06/14 13:46:48;;;;;;;5.97;2.40;;;;;;;;;;5130318;27;20134;-66
2023/06/14 13:49:17;;;;;;;5.47;2.03;;;;;;;;;;5133680;27;20038;-69
2023/06/14 13:51:44;;;;;;;8.35;2.45;;;;;;;;;;5118539;27;20035;-67
2023/06/14 13:54:13;;;;;;;5.75;2.00;;;;;;;;;;5133369;27;20039;-67
2023/06/14 13:56:39;;;;;;;7.28;2.25;;;;;;;;;;5097480;27;20456;-67
2023/06/14 13:59:06;;;;;;;5.70;2.13;;;;;;;;;;5114930;27;20031;-67
2023/06/14 14:01:32;;;;;;;7.18;2.28;;;;;;;;;;5133127;27;20470;-67
2023/06/14 14:04:00;;;;;;;7.95;2.70;;;;;;;;;;5135095;27;20040;-67
2023/06/14 14:06:26;;;;;;;7.13;2.22;;;;;;;;;;5117030;27;20175;-67
2023/06/14 14:08:53;;;;;;;6.32;2.00;;;;;;;;;;5116724;27;20066;-67
2023/06/14 14:11:20;;;;;;;7.72;2.05;;;;;;;;;;5131683;27;20083;-67
2023/06/14 14:13:46;;;;;;;7.35;2.17;;;;;;;;;;5105798;27;20515;-67
2023/06/14 14:16:13;;;;;;;4.28;2.03;;;;;;;;;;5133043;27;20035;-66
2023/06/14 14:18:39;;;;;;;6.15;1.70;;;;;;;;;;5134558;27;20039;-66
2023/06/14 14:21:06;;;;;;;6.18;1.90;;;;;;;;;;5116589;27;20075;-66
2023/06/14 14:23:32;;;;;;;14.98;2.22;;;;;;;;;;5134886;27;20039;-66
2023/06/14 14:26:00;;;;;;;9.35;1.60;;;;;;;;;;5116031;27;20069;-67
2023/06/14 14:28:26;;;;;;;7.00;2.15;;;;;;;;;;5133279;27;20051;-66
2023/06/14 14:30:53;;;;;;;6.30;2.00;;;;;;;;;;5134809;27;20055;-67
2023/06/14 14:33:20;;;;;;;3.90;2.00;;;;;;;;;;5134125;27;20043;-66
2023/06/14 14:35:46;;;;;;;7.75;1.73;;;;;;;;;;5133377;27;20130;-66
2023/06/14 14:38:13;;;;;;;9.10;2.08;;;;;;;;;;5114657;27;20039;-67
2023/06/14 14:40:40;;;;;;;9.18;2.10;;;;;;;;;;5148737;27;20050;-66
2023/06/14 14:43:06;;;;;;;7.60;2.00;;;;;;;;;;5133762;27;20046;-67
2023/06/14 14:45:32;;;;;;;7.82;2.00;;;;;;;;;;5116438;27;20051;-66